sensor_id;sensor_type;location;lat;lon;timestamp;pressure;altitude;pressure_sealevel;temperature
18161;BMP280;9205;52.032;4.314;2022-08-25T00:02:07;101693.09;;;25.38
18161;BMP280;9205;52.032;4.314;2022-08-25T00:04:35;101687.91;;;25.38
18161;BMP280;9205;52.032;4.314;2022-08-25T00:07:04;101682.94;;;25.35
18161;BMP280;9205;52.032;4.314;2022-08-25T00:09:33;101688.13;;;25.35
18161;BMP280;9205;52.032;4.314;2022-08-25T00:12:02;101683.75;;;25.35
18161;BMP280;9205;52.032;4.314;2022-08-25T00:14:34;101677.72;;;25.35
18161;BMP280;9205;52.032;4.314;2022-08-25T00:17:03;101683.75;;;25.35
18161;BMP280;9205;52.032;4.314;2022-08-25T00:19:35;101687.28;;;25.34
18161;BMP280;9205;52.032;4.314;2022-08-25T00:22:04;101675.22;;;25.33
18161;BMP280;9205;52.032;4.314;2022-08-25T00:24:31;101682.31;;;25.32
18161;BMP280;9205;52.032;4.314;2022-08-25T00:26:59;101679.09;;;25.28
18161;BMP280;9205;52.032;4.314;2022-08-25T00:29:31;101674.81;;;25.27
18161;BMP280;9205;52.032;4.314;2022-08-25T00:31:58;101675.03;;;25.24
18161;BMP280;9205;52.032;4.314;2022-08-25T00:34:30;101671.69;;;25.22
18161;BMP280;9205;52.032;4.314;2022-08-25T00:37:00;101669.19;;;25.21
18161;BMP280;9205;52.032;4.314;2022-08-25T00:39:27;101668.59;;;25.17
18161;BMP280;9205;52.032;4.314;2022-08-25T00:41:56;101664.31;;;25.16
18161;BMP280;9205;52.032;4.314;2022-08-25T00:44:27;101662.56;;;25.17
18161;BMP280;9205;52.032;4.314;2022-08-25T00:46:58;101664.31;;;25.16
18161;BMP280;9205;52.032;4.314;2022-08-25T00:49:34;101665.69;;;25.09
18161;BMP280;9205;52.032;4.314;2022-08-25T00:52:07;101661.22;;;25.11
18161;BMP280;9205;52.032;4.314;2022-08-25T00:54:39;101652.75;;;25.08
18161;BMP280;9205;52.032;4.314;2022-08-25T00:57:14;101655.44;;;25.06
18161;BMP280;9205;52.032;4.314;2022-08-25T00:59:43;101657.97;;;25.08
18161;BMP280;9205;52.032;4.314;2022-08-25T01:02:13;101649.53;;;25.04
18161;BMP280;9205;52.032;4.314;2022-08-25T01:04:45;101641.81;;;25.03
18161;BMP280;9205;52.032;4.314;2022-08-25T01:07:14;101647.13;;;25.01
18161;BMP280;9205;52.032;4.314;2022-08-25T01:09:45;101641.94;;;25.01
18161;BMP280;9205;52.032;4.314;2022-08-25T01:12:14;101646.09;;;25.04
18161;BMP280;9205;52.032;4.314;2022-08-25T01:14:44;101640.06;;;25.03
18161;BMP280;9205;52.032;4.314;2022-08-25T01:17:14;101642.75;;;25.02
18161;BMP280;9205;52.032;4.314;2022-08-25T01:19:41;101635.06;;;25.00
18161;BMP280;9205;52.032;4.314;2022-08-25T01:22:10;101640.28;;;25.00
18161;BMP280;9205;52.032;4.314;2022-08-25T01:24:43;101632.59;;;24.99
18161;BMP280;9205;52.032;4.314;2022-08-25T01:27:12;101625.84;;;24.96
18161;BMP280;9205;52.032;4.314;2022-08-25T01:29:41;101631.97;;;24.95
18161;BMP280;9205;52.032;4.314;2022-08-25T01:32:12;101626.78;;;24.95
18161;BMP280;9205;52.032;4.314;2022-08-25T01:34:43;101624.28;;;24.94
18161;BMP280;9205;52.032;4.314;2022-08-25T01:37:14;101618.44;;;24.90
18161;BMP280;9205;52.032;4.314;2022-08-25T01:39:42;101625.53;;;24.88
18161;BMP280;9205;52.032;4.314;2022-08-25T01:42:33;101620.53;;;24.85
18161;BMP280;9205;52.032;4.314;2022-08-25T01:45:06;101626.78;;;24.83
18161;BMP280;9205;52.032;4.314;2022-08-25T01:47:33;101619.91;;;24.82
18161;BMP280;9205;52.032;4.314;2022-08-25T01:50:00;101618.47;;;24.78
18161;BMP280;9205;52.032;4.314;2022-08-25T01:52:35;101610.75;;;24.76
18161;BMP280;9205;52.032;4.314;2022-08-25T01:55:05;101615.97;;;24.76
18161;BMP280;9205;52.032;4.314;2022-08-25T01:57:32;101616.19;;;24.73
18161;BMP280;9205;52.032;4.314;2022-08-25T01:59:59;101609.41;;;24.71
18161;BMP280;9205;52.032;4.314;2022-08-25T02:02:37;101616.56;;;24.67
18161;BMP280;9205;52.032;4.314;2022-08-25T02:05:05;101607.84;;;24.68
18161;BMP280;9205;52.032;4.314;2022-08-25T02:07:35;101613.97;;;24.67
18161;BMP280;9205;52.032;4.314;2022-08-25T02:10:05;101612.22;;;24.68
18161;BMP280;9205;52.032;4.314;2022-08-25T02:12:33;101612.41;;;24.65
18161;BMP280;9205;52.032;4.314;2022-08-25T02:15:04;101612.53;;;24.63
18161;BMP280;9205;52.032;4.314;2022-08-25T02:17:33;101614.41;;;24.61
18161;BMP280;9205;52.032;4.314;2022-08-25T02:20:03;101616.47;;;24.56
18161;BMP280;9205;52.032;4.314;2022-08-25T02:22:31;101612.22;;;24.55
18161;BMP280;9205;52.032;4.314;2022-08-25T02:25:00;101613.16;;;24.54
18161;BMP280;9205;52.032;4.314;2022-08-25T02:27:27;101614.94;;;24.54
18161;BMP280;9205;52.032;4.314;2022-08-25T02:29:54;101612.31;;;24.54
18161;BMP280;9205;52.032;4.314;2022-08-25T02:32:22;101604.53;;;24.54
18161;BMP280;9205;52.032;4.314;2022-08-25T02:34:49;101596.94;;;24.51
18161;BMP280;9205;52.032;4.314;2022-08-25T02:37:16;101591.84;;;24.50
18161;BMP280;9205;52.032;4.314;2022-08-25T02:39:43;101596.19;;;24.49
18161;BMP280;9205;52.032;4.314;2022-08-25T02:42:12;101580.84;;;24.46
18161;BMP280;9205;52.032;4.314;2022-08-25T02:44:40;101582.50;;;24.47
18161;BMP280;9205;52.032;4.314;2022-08-25T02:47:07;101588.91;;;24.42
18161;BMP280;9205;52.032;4.314;2022-08-25T02:49:34;101573.31;;;24.42
18161;BMP280;9205;52.032;4.314;2022-08-25T02:52:02;101583.72;;;24.42
18161;BMP280;9205;52.032;4.314;2022-08-25T02:54:30;101574.25;;;24.41
18161;BMP280;9205;52.032;4.314;2022-08-25T02:57:00;101570.19;;;24.37
18161;BMP280;9205;52.032;4.314;2022-08-25T02:59:29;101564.19;;;24.36
18161;BMP280;9205;52.032;4.314;2022-08-25T03:01:57;101564.38;;;24.33
18161;BMP280;9205;52.032;4.314;2022-08-25T03:04:24;101567.06;;;24.32
18161;BMP280;9205;52.032;4.314;2022-08-25T03:06:52;101569.97;;;24.27
18161;BMP280;9205;52.032;4.314;2022-08-25T03:09:19;101562.31;;;24.26
18161;BMP280;9205;52.032;4.314;2022-08-25T03:11:48;101567.50;;;24.26
18161;BMP280;9205;52.032;4.314;2022-08-25T03:14:15;101558.97;;;24.24
18161;BMP280;9205;52.032;4.314;2022-08-25T03:16:43;101558.16;;;24.23
18161;BMP280;9205;52.032;4.314;2022-08-25T03:19:11;101556.47;;;24.22
18161;BMP280;9205;52.032;4.314;2022-08-25T03:21:38;101549.63;;;24.21
18161;BMP280;9205;52.032;4.314;2022-08-25T03:24:06;101551.38;;;24.21
18161;BMP280;9205;52.032;4.314;2022-08-25T03:26:33;101542.03;;;24.18
18161;BMP280;9205;52.032;4.314;2022-08-25T03:29:19;101543.81;;;24.18
18161;BMP280;9205;52.032;4.314;2022-08-25T03:31:48;101535.50;;;24.13
18161;BMP280;9205;52.032;4.314;2022-08-25T03:34:18;101532.97;;;24.11
18161;BMP280;9205;52.032;4.314;2022-08-25T03:36:48;101527.78;;;24.11
18161;BMP280;9205;52.032;4.314;2022-08-25T03:39:17;101525.31;;;24.10
18161;BMP280;9205;52.032;4.314;2022-08-25T03:41:45;101512.22;;;24.11
18161;BMP280;9205;52.032;4.314;2022-08-25T03:44:17;101510.84;;;24.06
18161;BMP280;9205;52.032;4.314;2022-08-25T03:46:50;101512.63;;;24.05
18161;BMP280;9205;52.032;4.314;2022-08-25T03:49:21;101513.44;;;24.06
18161;BMP280;9205;52.032;4.314;2022-08-25T03:51:53;101514.59;;;24.02
18161;BMP280;9205;52.032;4.314;2022-08-25T03:54:25;101517.94;;;24.04
18161;BMP280;9205;52.032;4.314;2022-08-25T03:56:53;101508.69;;;24.00
18161;BMP280;9205;52.032;4.314;2022-08-25T03:59:20;101517.09;;;24.03
18161;BMP280;9205;52.032;4.314;2022-08-25T04:01:49;101518.88;;;24.03
18161;BMP280;9205;52.032;4.314;2022-08-25T04:04:16;101503.72;;;23.97
18161;BMP280;9205;52.032;4.314;2022-08-25T04:06:44;101512.44;;;23.96
18161;BMP280;9205;52.032;4.314;2022-08-25T04:09:12;101510.75;;;23.95
18161;BMP280;9205;52.032;4.314;2022-08-25T04:11:39;101506.50;;;23.94
18161;BMP280;9205;52.032;4.314;2022-08-25T04:14:07;101501.41;;;23.92
18161;BMP280;9205;52.032;4.314;2022-08-25T04:16:34;101503.38;;;23.89
18161;BMP280;9205;52.032;4.314;2022-08-25T04:19:05;101497.56;;;23.85
18161;BMP280;9205;52.032;4.314;2022-08-25T04:21:35;101509.50;;;23.88
18161;BMP280;9205;52.032;4.314;2022-08-25T04:24:03;101504.38;;;23.86
18161;BMP280;9205;52.032;4.314;2022-08-25T04:26:34;101500.97;;;23.86
18161;BMP280;9205;52.032;4.314;2022-08-25T04:29:06;101502.84;;;23.84
18161;BMP280;9205;52.032;4.314;2022-08-25T04:31:35;101506.34;;;23.83
18161;BMP280;9205;52.032;4.314;2022-08-25T04:34:05;101507.63;;;23.77
18161;BMP280;9205;52.032;4.314;2022-08-25T04:36:33;101499.91;;;23.76
18161;BMP280;9205;52.032;4.314;2022-08-25T04:39:01;101505.09;;;23.76
18161;BMP280;9205;52.032;4.314;2022-08-25T04:41:28;101512.81;;;23.77
18161;BMP280;9205;52.032;4.314;2022-08-25T04:43:59;101501.78;;;23.74
18161;BMP280;9205;52.032;4.314;2022-08-25T04:46:31;101507.03;;;23.72
18161;BMP280;9205;52.032;4.314;2022-08-25T04:49:01;101502.06;;;23.69
18161;BMP280;9205;52.032;4.314;2022-08-25T04:51:33;101503.00;;;23.68
18161;BMP280;9205;52.032;4.314;2022-08-25T04:54:04;101500.47;;;23.67
18161;BMP280;9205;52.032;4.314;2022-08-25T04:56:33;101500.47;;;23.67
18161;BMP280;9205;52.032;4.314;2022-08-25T04:59:04;101507.53;;;23.65
18161;BMP280;9205;52.032;4.314;2022-08-25T05:01:32;101514.59;;;23.63
18161;BMP280;9205;52.032;4.314;2022-08-25T05:04:03;101506.81;;;23.63
18161;BMP280;9205;52.032;4.314;2022-08-25T05:06:33;101508.75;;;23.60
18161;BMP280;9205;52.032;4.314;2022-08-25T05:09:01;101506.06;;;23.61
18161;BMP280;9205;52.032;4.314;2022-08-25T05:11:29;101504.22;;;23.63
18161;BMP280;9205;52.032;4.314;2022-08-25T05:13:59;101503.56;;;23.60
18161;BMP280;9205;52.032;4.314;2022-08-25T05:16:27;101501.91;;;23.59
18161;BMP280;9205;52.032;4.314;2022-08-25T05:18:55;101504.69;;;23.56
18161;BMP280;9205;52.032;4.314;2022-08-25T05:21:26;101508.13;;;23.56
18161;BMP280;9205;52.032;4.314;2022-08-25T05:23:57;101512.47;;;23.56
18161;BMP280;9205;52.032;4.314;2022-08-25T05:26:28;101509.97;;;23.54
18161;BMP280;9205;52.032;4.314;2022-08-25T05:28:58;101509.97;;;23.54
18161;BMP280;9205;52.032;4.314;2022-08-25T05:31:27;101507.38;;;23.54
18161;BMP280;9205;52.032;4.314;2022-08-25T05:33:55;101511.75;;;23.54
18161;BMP280;9205;52.032;4.314;2022-08-25T05:36:25;101505.81;;;23.52
18161;BMP280;9205;52.032;4.314;2022-08-25T05:38:52;101509.34;;;23.51
18161;BMP280;9205;52.032;4.314;2022-08-25T05:41:26;101512.78;;;23.51
18161;BMP280;9205;52.032;4.314;2022-08-25T05:43:53;101512.97;;;23.48
18161;BMP280;9205;52.032;4.314;2022-08-25T05:46:21;101511.13;;;23.50
18161;BMP280;9205;52.032;4.314;2022-08-25T05:48:49;101512.88;;;23.50
18161;BMP280;9205;52.032;4.314;2022-08-25T05:51:17;101518.91;;;23.50
18161;BMP280;9205;52.032;4.314;2022-08-25T05:53:48;101521.50;;;23.50
18161;BMP280;9205;52.032;4.314;2022-08-25T05:56:17;101509.34;;;23.51
18161;BMP280;9205;52.032;4.314;2022-08-25T05:58:46;101509.25;;;23.52
18161;BMP280;9205;52.032;4.314;2022-08-25T06:01:24;101514.53;;;23.51
18161;BMP280;9205;52.032;4.314;2022-08-25T06:04:09;101511.19;;;23.49
18161;BMP280;9205;52.032;4.314;2022-08-25T06:06:37;101512.13;;;23.48
18161;BMP280;9205;52.032;4.314;2022-08-25T06:09:05;101517.31;;;23.48
18161;BMP280;9205;52.032;4.314;2022-08-25T06:11:38;101513.09;;;23.47
18161;BMP280;9205;52.032;4.314;2022-08-25T06:14:07;101500.00;;;23.48
18161;BMP280;9205;52.032;4.314;2022-08-25T06:16:35;101490.47;;;23.49
18161;BMP280;9205;52.032;4.314;2022-08-25T06:19:03;101493.16;;;23.47
18161;BMP280;9205;52.032;4.314;2022-08-25T06:21:30;101495.63;;;23.49
18161;BMP280;9205;52.032;4.314;2022-08-25T06:23:58;101498.16;;;23.50
18161;BMP280;9205;52.032;4.314;2022-08-25T06:26:28;101493.91;;;23.49
18161;BMP280;9205;52.032;4.314;2022-08-25T06:28:56;101495.28;;;23.55
18161;BMP280;9205;52.032;4.314;2022-08-25T06:31:24;101495.16;;;23.56
18161;BMP280;9205;52.032;4.314;2022-08-25T06:33:52;101497.53;;;23.59
18161;BMP280;9205;52.032;4.314;2022-08-25T06:36:19;101504.03;;;23.66
18161;BMP280;9205;52.032;4.314;2022-08-25T06:38:51;101504.66;;;23.69
18161;BMP280;9205;52.032;4.314;2022-08-25T06:41:18;101509.72;;;23.71
18161;BMP280;9205;52.032;4.314;2022-08-25T06:43:45;101499.09;;;23.75
18161;BMP280;9205;52.032;4.314;2022-08-25T06:46:15;101498.88;;;23.78
18161;BMP280;9205;52.032;4.314;2022-08-25T06:48:44;101498.69;;;23.81
18161;BMP280;9205;52.032;4.314;2022-08-25T06:51:15;101503.75;;;23.83
18161;BMP280;9205;52.032;4.314;2022-08-25T06:53:43;101500.97;;;23.86
18161;BMP280;9205;52.032;4.314;2022-08-25T06:56:12;101502.34;;;23.91
18161;BMP280;9205;52.032;4.314;2022-08-25T06:58:40;101495.19;;;23.95
18161;BMP280;9205;52.032;4.314;2022-08-25T07:01:10;101491.34;;;24.00
18161;BMP280;9205;52.032;4.314;2022-08-25T07:03:37;101495.28;;;24.06
18161;BMP280;9205;52.032;4.314;2022-08-25T07:06:06;101493.97;;;24.13
18161;BMP280;9205;52.032;4.314;2022-08-25T07:08:34;101493.63;;;24.17
18161;BMP280;9205;52.032;4.314;2022-08-25T07:11:04;101484.84;;;24.20
18161;BMP280;9205;52.032;4.314;2022-08-25T07:13:32;101486.91;;;24.27
18161;BMP280;9205;52.032;4.314;2022-08-25T07:16:00;101496.03;;;24.33
18161;BMP280;9205;52.032;4.314;2022-08-25T07:18:27;101489.00;;;24.35
18161;BMP280;9205;52.032;4.314;2022-08-25T07:20:55;101493.75;;;24.41
18161;BMP280;9205;52.032;4.314;2022-08-25T07:23:25;101493.88;;;24.51
18161;BMP280;9205;52.032;4.314;2022-08-25T07:25:53;101480.50;;;24.57
18161;BMP280;9205;52.032;4.314;2022-08-25T07:28:22;101481.00;;;24.62
18161;BMP280;9205;52.032;4.314;2022-08-25T07:30:50;101478.06;;;24.67
18161;BMP280;9205;52.032;4.314;2022-08-25T07:33:17;101484.81;;;24.69
18161;BMP280;9205;52.032;4.314;2022-08-25T07:35:44;101476.72;;;24.74
18161;BMP280;9205;52.032;4.314;2022-08-25T07:38:11;101487.50;;;24.80
18161;BMP280;9205;52.032;4.314;2022-08-25T07:40:39;101480.22;;;24.85
18161;BMP280;9205;52.032;4.314;2022-08-25T07:43:07;101478.34;;;24.87
18161;BMP280;9205;52.032;4.314;2022-08-25T07:45:38;101485.81;;;24.92
18161;BMP280;9205;52.032;4.314;2022-08-25T07:48:09;101491.63;;;24.95
18161;BMP280;9205;52.032;4.314;2022-08-25T07:50:40;101487.44;;;25.05
18161;BMP280;9205;52.032;4.314;2022-08-25T07:53:10;101486.72;;;25.16
18161;BMP280;9205;52.032;4.314;2022-08-25T07:55:40;101482.63;;;25.24
18161;BMP280;9205;52.032;4.314;2022-08-25T07:58:09;101482.41;;;25.27
18161;BMP280;9205;52.032;4.314;2022-08-25T08:00:37;101488.09;;;25.32
18161;BMP280;9205;52.032;4.314;2022-08-25T08:03:08;101485.97;;;25.37
18161;BMP280;9205;52.032;4.314;2022-08-25T08:05:39;101491.91;;;25.39
18161;BMP280;9205;52.032;4.314;2022-08-25T08:08:06;101490.78;;;25.43
18161;BMP280;9205;52.032;4.314;2022-08-25T08:10:33;101496.84;;;25.54
18161;BMP280;9205;52.032;4.314;2022-08-25T08:13:02;101496.72;;;25.56
18161;BMP280;9205;52.032;4.314;2022-08-25T08:15:29;101501.34;;;25.63
18161;BMP280;9205;52.032;4.314;2022-08-25T08:17:57;101496.78;;;25.67
18161;BMP280;9205;52.032;4.314;2022-08-25T08:20:25;101497.38;;;25.70
18161;BMP280;9205;52.032;4.314;2022-08-25T08:22:53;101496.72;;;25.79
18161;BMP280;9205;52.032;4.314;2022-08-25T08:25:21;101498.03;;;25.85
18161;BMP280;9205;52.032;4.314;2022-08-25T08:27:48;101502.44;;;25.95
18161;BMP280;9205;52.032;4.314;2022-08-25T08:30:17;101489.81;;;26.02
18161;BMP280;9205;52.032;4.314;2022-08-25T08:32:46;101488.66;;;26.06
18161;BMP280;9205;52.032;4.314;2022-08-25T08:35:15;101497.31;;;26.17
18161;BMP280;9205;52.032;4.314;2022-08-25T08:37:44;101497.44;;;26.26
18161;BMP280;9205;52.032;4.314;2022-08-25T08:40:15;101496.53;;;26.38
18161;BMP280;9205;52.032;4.314;2022-08-25T08:43:31;101494.06;;;26.48
18161;BMP280;9205;52.032;4.314;2022-08-25T08:46:11;101489.19;;;26.54
18161;BMP280;9205;52.032;4.314;2022-08-25T08:49:12;101486.00;;;26.62
18161;BMP280;9205;52.032;4.314;2022-08-25T08:51:58;101489.44;;;26.73
18161;BMP280;9205;52.032;4.314;2022-08-25T08:54:35;101491.56;;;26.79
18161;BMP280;9205;52.032;4.314;2022-08-25T08:57:09;101492.59;;;26.88
18161;BMP280;9205;52.032;4.314;2022-08-25T08:59:49;101488.19;;;26.99
18161;BMP280;9205;52.032;4.314;2022-08-25T09:02:27;101492.34;;;27.12
18161;BMP280;9205;52.032;4.314;2022-08-25T09:05:05;101483.94;;;27.20
18161;BMP280;9205;52.032;4.314;2022-08-25T09:07:39;101487.69;;;27.27
18161;BMP280;9205;52.032;4.314;2022-08-25T09:10:09;101489.31;;;27.39
18161;BMP280;9205;52.032;4.314;2022-08-25T09:12:43;101487.63;;;27.49
18161;BMP280;9205;52.032;4.314;2022-08-25T09:15:21;101477.63;;;27.54
18161;BMP280;9205;52.032;4.314;2022-08-25T09:18:27;101482.84;;;27.65
18161;BMP280;9205;52.032;4.314;2022-08-25T09:21:12;101480.66;;;27.70
18161;BMP280;9205;52.032;4.314;2022-08-25T09:24:02;101479.72;;;27.71
18161;BMP280;9205;52.032;4.314;2022-08-25T09:26:40;101481.13;;;27.75
18161;BMP280;9205;52.032;4.314;2022-08-25T09:29:13;101478.97;;;27.79
18161;BMP280;9205;52.032;4.314;2022-08-25T09:31:44;101480.75;;;27.79
18161;BMP280;9205;52.032;4.314;2022-08-25T09:34:20;101485.19;;;27.88
18161;BMP280;9205;52.032;4.314;2022-08-25T09:36:49;101481.38;;;27.92
18161;BMP280;9205;52.032;4.314;2022-08-25T09:39:18;101488.47;;;28.01
18161;BMP280;9205;52.032;4.314;2022-08-25T09:41:50;101482.34;;;28.11
18161;BMP280;9205;52.032;4.314;2022-08-25T09:44:21;101479.00;;;28.20
18161;BMP280;9205;52.032;4.314;2022-08-25T09:47:00;101476.28;;;28.31
18161;BMP280;9205;52.032;4.314;2022-08-25T09:49:37;101472.34;;;28.46
18161;BMP280;9205;52.032;4.314;2022-08-25T09:52:32;101473.94;;;28.58
18161;BMP280;9205;52.032;4.314;2022-08-25T09:55:29;101467.53;;;28.71
18161;BMP280;9205;52.032;4.314;2022-08-25T09:57:59;101471.44;;;28.86
18161;BMP280;9205;52.032;4.314;2022-08-25T10:00:32;101459.09;;;28.98
18161;BMP280;9205;52.032;4.314;2022-08-25T10:03:07;101463.91;;;29.12
18161;BMP280;9205;52.032;4.314;2022-08-25T10:05:56;101466.53;;;29.31
18161;BMP280;9205;52.032;4.314;2022-08-25T10:08:32;101465.88;;;29.47
18161;BMP280;9205;52.032;4.314;2022-08-25T10:11:04;101460.94;;;29.54
18161;BMP280;9205;52.032;4.314;2022-08-25T10:13:39;101467.53;;;29.67
18161;BMP280;9205;52.032;4.314;2022-08-25T10:16:12;101457.47;;;29.72
18161;BMP280;9205;52.032;4.314;2022-08-25T10:19:07;101448.78;;;29.81
18161;BMP280;9205;52.032;4.314;2022-08-25T10:21:39;101444.78;;;29.87
18161;BMP280;9205;52.032;4.314;2022-08-25T10:24:10;101450.97;;;29.95
18161;BMP280;9205;52.032;4.314;2022-08-25T10:26:53;101448.31;;;30.05
18161;BMP280;9205;52.032;4.314;2022-08-25T10:30:00;101452.19;;;30.10
18161;BMP280;9205;52.032;4.314;2022-08-25T10:36:01;101434.69;;;30.37
18161;BMP280;9205;52.032;4.314;2022-08-25T10:38:43;101428.72;;;30.54
18161;BMP280;9205;52.032;4.314;2022-08-25T10:41:36;101424.63;;;30.69
18161;BMP280;9205;52.032;4.314;2022-08-25T10:44:17;101423.78;;;30.69
18161;BMP280;9205;52.032;4.314;2022-08-25T10:47:38;101418.78;;;30.75
18161;BMP280;9205;52.032;4.314;2022-08-25T10:50:28;101416.34;;;30.91
18161;BMP280;9205;52.032;4.314;2022-08-25T10:53:29;101421.94;;;31.05
18161;BMP280;9205;52.032;4.314;2022-08-25T10:56:11;101432.34;;;31.15
18161;BMP280;9205;52.032;4.314;2022-08-25T10:59:01;101426.94;;;31.16
18161;BMP280;9205;52.032;4.314;2022-08-25T11:01:47;101434.28;;;31.13
18161;BMP280;9205;52.032;4.314;2022-08-25T11:04:23;101431.00;;;31.11
18161;BMP280;9205;52.032;4.314;2022-08-25T11:06:57;101419.97;;;31.07
18161;BMP280;9205;52.032;4.314;2022-08-25T11:09:40;101426.22;;;31.06
18161;BMP280;9205;52.032;4.314;2022-08-25T11:12:18;101420.13;;;31.06
18161;BMP280;9205;52.032;4.314;2022-08-25T11:14:56;101428.06;;;30.97
18161;BMP280;9205;52.032;4.314;2022-08-25T11:17:33;101424.75;;;30.95
18161;BMP280;9205;52.032;4.314;2022-08-25T11:20:11;101429.97;;;30.95
18161;BMP280;9205;52.032;4.314;2022-08-25T11:22:45;101431.06;;;31.02
18161;BMP280;9205;52.032;4.314;2022-08-25T11:25:19;101426.34;;;31.05
18161;BMP280;9205;52.032;4.314;2022-08-25T11:28:11;101425.47;;;31.14
18161;BMP280;9205;52.032;4.314;2022-08-25T11:30:41;101433.19;;;31.33
18161;BMP280;9205;52.032;4.314;2022-08-25T11:33:13;101423.28;;;31.44
18161;BMP280;9205;52.032;4.314;2022-08-25T11:35:58;101426.66;;;31.37
18161;BMP280;9205;52.032;4.314;2022-08-25T11:38:47;101424.25;;;31.43
18161;BMP280;9205;52.032;4.314;2022-08-25T11:41:27;101419.66;;;31.63
18161;BMP280;9205;52.032;4.314;2022-08-25T11:44:17;101436.84;;;31.57
18161;BMP280;9205;52.032;4.314;2022-08-25T11:47:07;101432.19;;;31.51
18161;BMP280;9205;52.032;4.314;2022-08-25T11:49:52;101416.22;;;31.62
18161;BMP280;9205;52.032;4.314;2022-08-25T11:52:45;101418.47;;;31.83
18161;BMP280;9205;52.032;4.314;2022-08-25T11:55:18;101408.75;;;32.00
18161;BMP280;9205;52.032;4.314;2022-08-25T11:57:49;101424.50;;;32.00
18161;BMP280;9205;52.032;4.314;2022-08-25T12:00:37;101424.13;;;32.13
18161;BMP280;9205;52.032;4.314;2022-08-25T12:03:44;101415.19;;;32.31
18161;BMP280;9205;52.032;4.314;2022-08-25T12:06:23;101407.16;;;32.41
18161;BMP280;9205;52.032;4.314;2022-08-25T12:09:17;101402.75;;;32.49
18161;BMP280;9205;52.032;4.314;2022-08-25T12:11:51;101400.84;;;32.59
18161;BMP280;9205;52.032;4.314;2022-08-25T12:14:43;101404.00;;;32.78
18161;BMP280;9205;52.032;4.314;2022-08-25T12:17:36;101402.72;;;32.82
18161;BMP280;9205;52.032;4.314;2022-08-25T12:20:05;101414.03;;;32.75
18161;BMP280;9205;52.032;4.314;2022-08-25T12:22:54;101414.19;;;32.73
18161;BMP280;9205;52.032;4.314;2022-08-25T12:25:45;101409.25;;;32.70
18161;BMP280;9205;52.032;4.314;2022-08-25T12:28:46;101419.53;;;32.56
18161;BMP280;9205;52.032;4.314;2022-08-25T12:31:30;101411.97;;;32.53
18161;BMP280;9205;52.032;4.314;2022-08-25T12:34:19;101409.47;;;32.44
18161;BMP280;9205;52.032;4.314;2022-08-25T12:36:57;101407.81;;;32.43
18161;BMP280;9205;52.032;4.314;2022-08-25T12:39:30;101415.50;;;32.36
18161;BMP280;9205;52.032;4.314;2022-08-25T12:42:04;101405.81;;;32.29
18161;BMP280;9205;52.032;4.314;2022-08-25T12:44:44;101423.78;;;32.16
18161;BMP280;9205;52.032;4.314;2022-08-25T12:47:27;101424.19;;;32.03
18161;BMP280;9205;52.032;4.314;2022-08-25T12:50:35;101409.13;;;32.05
18161;BMP280;9205;52.032;4.314;2022-08-25T12:53:13;101410.16;;;32.12
18161;BMP280;9205;52.032;4.314;2022-08-25T12:55:47;101417.88;;;32.14
18161;BMP280;9205;52.032;4.314;2022-08-25T12:58:16;101414.88;;;32.09
18161;BMP280;9205;52.032;4.314;2022-08-25T13:01:08;101412.81;;;31.95
18161;BMP280;9205;52.032;4.314;2022-08-25T13:07:23;101413.03;;;31.76
18161;BMP280;9205;52.032;4.314;2022-08-25T13:10:27;101409.75;;;31.74
18161;BMP280;9205;52.032;4.314;2022-08-25T13:13:04;101415.97;;;31.73
18161;BMP280;9205;52.032;4.314;2022-08-25T13:15:39;101414.16;;;31.74
18161;BMP280;9205;52.032;4.314;2022-08-25T13:18:21;101408.91;;;31.74
18161;BMP280;9205;52.032;4.314;2022-08-25T13:20:54;101408.72;;;31.67
18161;BMP280;9205;52.032;4.314;2022-08-25T13:23:35;101403.75;;;31.64
18161;BMP280;9205;52.032;4.314;2022-08-25T13:26:04;101401.50;;;31.52
18161;BMP280;9205;52.032;4.314;2022-08-25T13:28:34;101401.22;;;31.55
18161;BMP280;9205;52.032;4.314;2022-08-25T13:35:28;101409.00;;;31.64
18161;BMP280;9205;52.032;4.314;2022-08-25T13:38:12;101405.41;;;31.48
18161;BMP280;9205;52.032;4.314;2022-08-25T13:41:08;101400.56;;;31.35
18161;BMP280;9205;52.032;4.314;2022-08-25T13:43:45;101404.09;;;31.26
18161;BMP280;9205;52.032;4.314;2022-08-25T13:46:38;101393.50;;;31.36
18161;BMP280;9205;52.032;4.314;2022-08-25T13:49:25;101397.59;;;31.38
18161;BMP280;9205;52.032;4.314;2022-08-25T13:51:54;101389.66;;;31.30
18161;BMP280;9205;52.032;4.314;2022-08-25T13:54:34;101394.09;;;31.30
18161;BMP280;9205;52.032;4.314;2022-08-25T13:57:13;101386.13;;;31.39
18161;BMP280;9205;52.032;4.314;2022-08-25T13:59:52;101387.13;;;31.38
18161;BMP280;9205;52.032;4.314;2022-08-25T14:02:42;101386.38;;;31.46
18161;BMP280;9205;52.032;4.314;2022-08-25T14:05:12;101383.38;;;31.41
18161;BMP280;9205;52.032;4.314;2022-08-25T14:07:40;101376.25;;;31.33
18161;BMP280;9205;52.032;4.314;2022-08-25T14:10:30;101381.56;;;31.41
18161;BMP280;9205;52.032;4.314;2022-08-25T14:13:12;101378.88;;;31.33
18161;BMP280;9205;52.032;4.314;2022-08-25T14:15:42;101386.41;;;31.28
18161;BMP280;9205;52.032;4.314;2022-08-25T14:18:17;101397.94;;;31.35
18161;BMP280;9205;52.032;4.314;2022-08-25T14:20:49;101390.41;;;31.40
18161;BMP280;9205;52.032;4.314;2022-08-25T14:23:23;101389.22;;;31.35
18161;BMP280;9205;52.032;4.314;2022-08-25T14:25:54;101386.94;;;31.14
18161;BMP280;9205;52.032;4.314;2022-08-25T14:28:29;101392.41;;;31.03
18161;BMP280;9205;52.032;4.314;2022-08-25T14:31:01;101396.25;;;30.99
18161;BMP280;9205;52.032;4.314;2022-08-25T14:33:51;101398.78;;;31.01
18161;BMP280;9205;52.032;4.314;2022-08-25T14:36:19;101397.00;;;30.75
18161;BMP280;9205;52.032;4.314;2022-08-25T14:38:47;101397.09;;;30.56
18161;BMP280;9205;52.032;4.314;2022-08-25T14:41:14;101400.38;;;30.31
18161;BMP280;9205;52.032;4.314;2022-08-25T14:43:43;101404.63;;;30.05
18161;BMP280;9205;52.032;4.314;2022-08-25T14:46:22;101407.56;;;29.74
18161;BMP280;9205;52.032;4.314;2022-08-25T14:48:57;101403.19;;;29.55
18161;BMP280;9205;52.032;4.314;2022-08-25T14:51:30;101396.88;;;29.48
18161;BMP280;9205;52.032;4.314;2022-08-25T14:54:01;101409.03;;;29.40
18161;BMP280;9205;52.032;4.314;2022-08-25T14:56:30;101408.56;;;29.26
18161;BMP280;9205;52.032;4.314;2022-08-25T14:59:00;101416.69;;;29.04